CheckWX is a tool to help pilots better visualize weather data.  It is not intended as a substitute for an official pre-flight weather briefing.

21:42:43 UTC

GMMB METAR
Ben Slimane Airport
Ben Slimane, Morocco
Current

43 mins ago

GMMB 202100Z AUTO 06006KT //// R32/P2000N ////// 12/12 Q1022 NOSIG
Observed
Feb-20 @ 21:00 UTC
Wind
  • 060° at 6 KTS
Visibility
1,996 meters
Temperature
12°C / 54°F
Dewpoint
12°C / 54°F
Humidity
100%
Altimeter
30.18" Hg
Pressure
1021.92 hPa
Previous

2 hours ago

GMMB 202000Z AUTO 04005KT //// R32/P2000N ////// 12/12 Q1022 NOSIG
Observed
Feb-20 @ 20:00 UTC
Wind
  • 040° at 5 KTS
Visibility
1,996 meters
Temperature
12°C / 54°F
Dewpoint
12°C / 54°F
Humidity
100%
Altimeter
30.18" Hg
Pressure
1021.92 hPa
Previous

3 hours ago

GMMB 201900Z 02004KT 6000 NSC 12/12 Q1021 NOSIG
Observed
Feb-20 @ 19:00 UTC
Wind
  • 020° at 4 KTS
Visibility
6,003 meters
Flight Rules
MVFR
Cloud Levels
  • Clear skies
Temperature
12°C / 54°F
Dewpoint
12°C / 54°F
Humidity
100%
Altimeter
30.15" Hg
Pressure
1020.92 hPa